createdAt,value
2018-10-05T00:01:00.626Z,96907.81
2018-10-05T00:03:30.740Z,96911.70
2018-10-05T00:06:00.416Z,96913.94
2018-10-05T00:08:30.811Z,96918.53
2018-10-05T00:11:00.746Z,96917.41
2018-10-05T00:13:30.484Z,96913.03
2018-10-05T00:16:00.713Z,96907.51
2018-10-05T00:18:30.423Z,96907.09
2018-10-05T00:21:00.204Z,96902.20
2018-10-05T00:23:29.917Z,96904.55
2018-10-05T00:25:59.757Z,96908.23
2018-10-05T00:28:30.492Z,96907.30
2018-10-05T00:31:00.152Z,96910.28
2018-10-05T00:33:30.325Z,96907.86
2018-10-05T00:36:00.122Z,96904.91
2018-10-05T00:38:29.829Z,96907.46
2018-10-05T00:41:01.010Z,96899.00
2018-10-05T00:43:31.839Z,96895.28
2018-10-05T00:46:01.921Z,96894.59
2018-10-05T00:48:32.168Z,96896.61
2018-10-05T00:51:01.939Z,96884.15
2018-10-05T00:53:31.820Z,96881.43
2018-10-05T00:56:01.465Z,96883.06
2018-10-05T00:58:31.175Z,96886.11
2018-10-05T01:01:01.450Z,96878.15
2018-10-05T01:03:31.573Z,96873.86
2018-10-05T01:06:01.363Z,96868.05
2018-10-05T01:08:31.627Z,96869.98
2018-10-05T01:11:01.583Z,96865.19
2018-10-05T01:13:32.942Z,96868.97
2018-10-05T01:16:03.399Z,96875.09
2018-10-05T01:18:35.930Z,96866.20
2018-10-05T01:21:05.597Z,96860.98
2018-10-05T01:23:35.313Z,96858.23
2018-10-05T01:26:05.062Z,96853.66
2018-10-05T01:28:43.302Z,96848.65
2018-10-05T01:31:12.995Z,96851.40
2018-10-05T01:33:43.243Z,96843.43
2018-10-05T01:36:13.189Z,96843.85
2018-10-05T01:38:43.253Z,96850.58
2018-10-05T01:41:13.130Z,96845.46
2018-10-05T01:43:42.934Z,96851.17
2018-10-05T01:46:12.709Z,96848.91
2018-10-05T01:48:42.827Z,96838.19
2018-10-05T01:51:12.579Z,96835.09
2018-10-05T01:53:43.153Z,96837.98
2018-10-05T01:56:14.332Z,96831.85
2018-10-05T01:58:43.946Z,96830.77
2018-10-05T02:01:14.756Z,96833.24
2018-10-05T02:03:44.701Z,96832.88
2018-10-05T02:06:15.341Z,96825.56
2018-10-05T02:08:44.992Z,96832.16
2018-10-05T02:11:14.813Z,96834.67
2018-10-05T02:13:44.452Z,96828.64
2018-10-05T02:16:14.588Z,96828.45
2018-10-05T02:18:44.350Z,96825.33
2018-10-05T02:21:14.296Z,96821.75
2018-10-05T02:23:43.992Z,96813.59
2018-10-05T02:26:13.725Z,96811.66
2018-10-05T02:28:43.433Z,96815.78
2018-10-05T02:31:13.545Z,96809.56
2018-10-05T02:33:43.290Z,96813.22
2018-10-05T02:36:13.649Z,96809.25
2018-10-05T02:38:43.338Z,96806.45
2018-10-05T02:41:13.030Z,96804.34
2018-10-05T02:43:43.106Z,96798.80
2018-10-05T02:46:13.781Z,96798.08
2018-10-05T02:48:43.783Z,96793.48
2018-10-05T02:51:13.462Z,96787.86
2018-10-05T02:53:43.150Z,96783.33
2018-10-05T02:56:13.245Z,96781.02
2018-10-05T02:58:42.929Z,96782.30
2018-10-05T03:01:23.437Z,96779.77
2018-10-05T03:03:54.342Z,96778.39
2018-10-05T03:06:24.246Z,96778.67
2018-10-05T03:08:54.392Z,96766.20
2018-10-05T03:11:24.095Z,96769.73
2018-10-05T03:13:53.808Z,96759.73
2018-10-05T03:16:24.419Z,96763.58
2018-10-05T03:18:54.488Z,96753.06
2018-10-05T03:21:24.346Z,96752.01
2018-10-05T03:23:54.958Z,96746.98
2018-10-05T03:26:26.124Z,96750.02
2018-10-05T03:28:55.779Z,96738.87
2018-10-05T03:31:25.443Z,96742.09
2018-10-05T03:33:56.284Z,96740.70
2018-10-05T03:36:26.210Z,96742.61
2018-10-05T03:38:55.904Z,96742.33
2018-10-05T03:41:25.615Z,96742.41
2018-10-05T03:43:55.221Z,96749.13
2018-10-05T03:46:24.925Z,96750.24
2018-10-05T03:48:55.038Z,96741.38
2018-10-05T03:51:24.881Z,96746.98
2018-10-05T03:53:56.190Z,96742.19
2018-10-05T03:56:25.934Z,96742.55
2018-10-05T03:58:55.694Z,96738.56
2018-10-05T04:01:25.517Z,96746.59
2018-10-05T04:03:55.574Z,96738.56
2018-10-05T04:06:26.044Z,96735.53
2018-10-05T04:08:55.734Z,96733.91
2018-10-05T04:11:25.624Z,96733.83
2018-10-05T04:13:55.463Z,96732.16
2018-10-05T04:16:26.767Z,96734.27
2018-10-05T04:19:00.607Z,96736.45
2018-10-05T04:21:31.198Z,96730.53
2018-10-05T04:24:00.875Z,96732.76
2018-10-05T04:26:30.603Z,96736.37
2018-10-05T04:29:00.315Z,96737.30
2018-10-05T04:31:30.594Z,96735.25
2018-10-05T04:34:00.570Z,96737.28
2018-10-05T04:36:30.469Z,96740.89
2018-10-05T04:39:00.568Z,96747.77
2018-10-05T04:41:30.225Z,96746.00
2018-10-05T04:44:00.633Z,96745.02
2018-10-05T04:46:30.309Z,96746.42
2018-10-05T04:49:02.311Z,96741.61
2018-10-05T04:51:31.932Z,96739.30
2018-10-05T04:54:01.597Z,96748.83
2018-10-05T04:56:31.248Z,96747.50
2018-10-05T04:59:01.030Z,96751.17
2018-10-05T05:01:52.789Z,96751.38
2018-10-05T05:08:19.645Z,96756.73
2018-10-05T05:10:51.908Z,96755.25
2018-10-05T05:13:21.629Z,96753.22
2018-10-05T05:15:52.410Z,96749.00
2018-10-05T05:18:23.507Z,96747.72
2018-10-05T05:20:53.194Z,96743.41
2018-10-05T05:23:22.794Z,96739.72
2018-10-05T05:25:53.054Z,96747.80
2018-10-05T05:28:24.481Z,96743.72
2018-10-05T05:30:54.143Z,96739.40
2018-10-05T05:33:25.148Z,96737.25
2018-10-05T05:35:55.633Z,96742.75
2018-10-05T05:38:25.339Z,96740.98
2018-10-05T05:40:55.347Z,96745.30
2018-10-05T05:43:25.523Z,96748.14
2018-10-05T05:45:55.961Z,96745.92
2018-10-05T05:48:25.621Z,96746.98
2018-10-05T05:50:55.664Z,96746.70
2018-10-05T05:53:25.357Z,96742.20
2018-10-05T05:55:55.017Z,96740.11
2018-10-05T05:58:24.803Z,96735.93
2018-10-05T06:00:54.518Z,96744.72
2018-10-05T06:03:25.023Z,96741.12
2018-10-05T06:05:55.130Z,96738.37
2018-10-05T06:08:24.904Z,96735.80
2018-10-05T06:10:54.686Z,96739.79
2018-10-05T06:13:24.403Z,96739.05
2018-10-05T06:15:54.789Z,96740.22
2018-10-05T06:18:25.515Z,96744.89
2018-10-05T06:20:55.542Z,96749.02
2018-10-05T06:23:25.606Z,96742.53
2018-10-05T06:25:55.569Z,96745.70
2018-10-05T06:28:25.280Z,96743.11
2018-10-05T06:30:56.641Z,96737.56
2018-10-05T06:33:27.970Z,96739.22
2018-10-05T06:35:58.354Z,96738.46
2018-10-05T06:38:27.993Z,96738.44
2018-10-05T06:40:58.505Z,96735.45
2018-10-05T06:43:29.230Z,96732.23
2018-10-05T06:45:59.216Z,96736.79
2018-10-05T06:48:28.916Z,96740.89
2018-10-05T06:50:58.623Z,96737.25
2018-10-05T06:53:28.368Z,96736.53
2018-10-05T06:55:58.514Z,96743.31
2018-10-05T06:58:28.194Z,96741.38
2018-10-05T07:00:57.884Z,96749.70
2018-10-05T07:03:27.570Z,96752.48
2018-10-05T07:05:57.203Z,96750.41
2018-10-05T07:08:26.875Z,96742.59
2018-10-05T07:10:57.982Z,96745.55
2018-10-05T07:13:27.631Z,96749.05
2018-10-05T07:15:57.392Z,96750.48
2018-10-05T07:18:27.460Z,96746.23
2018-10-05T07:20:57.149Z,96743.39
2018-10-05T07:23:27.317Z,96741.33
2018-10-05T07:25:57.214Z,96739.20
2018-10-05T07:28:30.027Z,96742.64
2018-10-05T07:31:04.451Z,96743.08
2018-10-05T07:33:34.187Z,96744.69
2018-10-05T07:36:07.286Z,96747.27
2018-10-05T07:38:37.622Z,96753.03
2018-10-05T07:41:07.275Z,96753.72
2018-10-05T07:43:37.253Z,96743.94
2018-10-05T07:46:07.826Z,96750.63
2018-10-05T07:48:37.476Z,96742.42
2018-10-05T07:51:07.986Z,96744.86
2018-10-05T07:53:37.616Z,96743.59
2018-10-05T08:02:02.623Z,96744.14
2018-10-05T08:04:32.999Z,96738.48
2018-10-05T08:07:03.329Z,96739.66
2018-10-05T08:09:36.726Z,96741.59
2018-10-05T08:12:07.721Z,96739.26
2018-10-05T08:14:37.438Z,96748.75
2018-10-05T08:17:07.661Z,96745.95
2018-10-05T08:19:38.264Z,96739.80
2018-10-05T08:22:08.169Z,96742.52
2018-10-05T08:24:38.098Z,96736.44
2018-10-05T08:27:09.650Z,96739.69
2018-10-05T08:29:41.607Z,96735.77
2018-10-05T08:32:11.618Z,96733.09
2018-10-05T08:34:41.283Z,96731.73
2018-10-05T08:37:11.484Z,96736.05
2018-10-05T08:39:42.500Z,96733.39
2018-10-05T08:42:12.121Z,96737.48
2018-10-05T08:44:42.983Z,96729.41
2018-10-05T08:47:12.637Z,96734.80
2018-10-05T08:49:42.614Z,96725.39
2018-10-05T08:52:13.351Z,96727.02
2018-10-05T08:54:42.979Z,96724.58
2018-10-05T08:57:12.655Z,96720.55
2018-10-05T08:59:46.435Z,96721.65
2018-10-05T09:03:01.554Z,96714.61
2018-10-05T09:05:31.218Z,96714.89
2018-10-05T09:08:00.941Z,96713.78
2018-10-05T09:10:31.392Z,96715.67
2018-10-05T09:13:01.750Z,96713.77
2018-10-05T09:15:32.012Z,96716.13
2018-10-05T09:18:03.526Z,96704.00
2018-10-05T09:20:33.311Z,96703.73
2018-10-05T09:23:03.067Z,96702.84
2018-10-05T09:25:33.794Z,96690.40
2018-10-05T09:28:05.638Z,96682.16
2018-10-05T09:30:36.295Z,96680.53
2018-10-05T09:33:06.069Z,96666.81
2018-10-05T09:35:37.368Z,96665.97
2018-10-05T09:38:10.547Z,96661.34
2018-10-05T09:40:42.506Z,96665.91
2018-10-05T09:43:14.729Z,96664.79
2018-10-05T09:45:46.429Z,96652.70
2018-10-05T09:48:19.080Z,96649.95
2018-10-05T09:50:50.408Z,96647.30
2018-10-05T09:53:20.175Z,96646.91
2018-10-05T09:55:50.317Z,96650.42
2018-10-05T09:58:21.090Z,96638.97
2018-10-05T10:00:56.201Z,96638.16
2018-10-05T10:03:33.333Z,96637.80
2018-10-05T10:06:04.549Z,96633.91
2018-10-05T10:08:37.710Z,96632.84
2018-10-05T10:11:07.592Z,96633.65
2018-10-05T10:13:38.024Z,96628.68
2018-10-05T10:16:08.329Z,96625.38
2018-10-05T10:18:38.805Z,96620.69
2018-10-05T10:21:10.699Z,96615.52
2018-10-05T10:23:43.222Z,96617.84
2018-10-05T10:26:16.916Z,96604.48
2018-10-05T10:28:48.848Z,96603.88
2018-10-05T10:31:19.549Z,96599.95
2018-10-05T10:33:50.826Z,96603.25
2018-10-05T10:36:22.517Z,96600.30
2018-10-05T10:38:54.247Z,96597.73
2018-10-05T10:41:25.761Z,96590.29
2018-10-05T10:43:59.680Z,96598.14
2018-10-05T10:46:29.754Z,96584.23
2018-10-05T10:49:00.398Z,96583.02
2018-10-05T10:51:30.718Z,96580.11
2018-10-05T10:54:00.930Z,96580.14
2018-10-05T10:56:30.559Z,96569.31
2018-10-05T10:59:00.330Z,96570.73
2018-10-05T11:01:30.003Z,96572.35
2018-10-05T11:03:59.690Z,96572.63
2018-10-05T11:06:30.222Z,96567.19
2018-10-05T11:09:00.381Z,96563.72
2018-10-05T11:11:30.032Z,96553.66
2018-10-05T11:14:00.470Z,96546.91
2018-10-05T11:16:30.225Z,96536.69
2018-10-05T11:18:59.888Z,96540.44
2018-10-05T11:21:29.525Z,96540.83
2018-10-05T11:23:59.481Z,96536.48
2018-10-05T11:26:29.493Z,96532.72
2018-10-05T11:28:59.313Z,96533.09
2018-10-05T11:31:29.035Z,96521.61
2018-10-05T11:33:59.274Z,96521.02
2018-10-05T11:36:29.003Z,96513.75
2018-10-05T11:39:02.038Z,96501.82
2018-10-05T11:41:32.279Z,96498.08
2018-10-05T11:44:04.501Z,96499.44
2018-10-05T11:46:34.650Z,96489.69
2018-10-05T11:49:07.951Z,96484.02
2018-10-05T11:51:37.995Z,96477.28
2018-10-05T11:54:07.667Z,96477.86
2018-10-05T11:56:38.769Z,96471.44
2018-10-05T11:59:08.413Z,96470.73
2018-10-05T12:01:38.052Z,96469.30
2018-10-05T12:04:08.577Z,96464.33
2018-10-05T12:06:39.033Z,96462.27
2018-10-05T12:09:09.557Z,96463.02
2018-10-05T12:11:40.689Z,96452.94
2018-10-05T12:14:10.396Z,96455.60
2018-10-05T12:16:41.265Z,96462.38
2018-10-05T12:19:10.951Z,96454.13
2018-10-05T12:21:40.610Z,96453.94
2018-10-05T12:24:12.414Z,96451.59
2018-10-05T12:26:43.186Z,96445.25
2018-10-05T12:29:12.772Z,96445.39
2018-10-05T12:31:42.443Z,96443.39
2018-10-05T12:34:12.362Z,96441.31
2018-10-05T12:36:41.999Z,96438.91
2018-10-05T12:39:11.654Z,96435.50
2018-10-05T12:41:41.741Z,96433.71
2018-10-05T12:44:11.375Z,96426.20
2018-10-05T12:46:49.291Z,96424.09
2018-10-05T12:49:19.778Z,96425.82
2018-10-05T12:51:50.974Z,96429.48
2018-10-05T12:54:22.877Z,96423.25
2018-10-05T12:56:53.393Z,96420.09
2018-10-05T12:59:24.685Z,96416.58
2018-10-05T13:01:54.576Z,96419.17
2018-10-05T13:04:25.187Z,96422.49
2018-10-05T13:06:56.281Z,96426.70
2018-10-05T13:09:27.975Z,96424.66
2018-10-05T13:11:57.619Z,96420.59
2018-10-05T13:14:27.523Z,96414.80
2018-10-05T13:16:58.601Z,96410.48
2018-10-05T13:19:29.204Z,96406.66
2018-10-05T13:21:59.731Z,96405.72
2018-10-05T13:24:29.370Z,96400.40
2018-10-05T13:26:59.766Z,96398.48
2018-10-05T13:29:32.246Z,96406.38
2018-10-05T13:32:03.557Z,96401.59
2018-10-05T13:34:37.416Z,96401.95
2018-10-05T13:37:20.677Z,96395.42
2018-10-05T13:39:53.410Z,96390.80
2018-10-05T13:42:27.676Z,96389.19
2018-10-05T13:44:58.942Z,96386.72
2018-10-05T13:47:30.481Z,96388.58
2018-10-05T13:50:05.245Z,96389.33
2018-10-05T13:52:43.520Z,96391.09
2018-10-05T13:55:13.169Z,96388.02
2018-10-05T13:57:44.158Z,96391.84
2018-10-05T14:00:23.101Z,96379.53
2018-10-05T14:02:53.054Z,96381.78
2018-10-05T14:05:23.326Z,96377.96
2018-10-05T14:07:53.854Z,96379.68
2018-10-05T14:10:25.374Z,96377.52
2018-10-05T14:12:55.042Z,96372.09
2018-10-05T14:15:25.187Z,96366.11
2018-10-05T14:17:56.542Z,96366.30
2018-10-05T14:20:27.428Z,96365.96
2018-10-05T14:22:57.604Z,96367.91
2018-10-05T14:25:28.638Z,96365.50
2018-10-05T14:27:59.570Z,96363.95
2018-10-05T14:30:31.576Z,96361.23
2018-10-05T14:33:02.665Z,96358.41
2018-10-05T14:35:35.459Z,96352.91
2018-10-05T14:38:07.438Z,96359.88
2018-10-05T14:40:40.174Z,96355.87
2018-10-05T14:43:11.917Z,96356.61
2018-10-05T14:45:46.590Z,96357.53
2018-10-05T14:48:17.248Z,96356.76
2018-10-05T14:50:49.091Z,96353.16
2018-10-05T14:53:19.599Z,96356.98
2018-10-05T14:55:59.656Z,96354.91
2018-10-05T14:58:31.559Z,96349.53
2018-10-05T15:01:03.708Z,96340.95
2018-10-05T15:03:34.749Z,96332.95
2018-10-05T15:06:04.888Z,96335.44
2018-10-05T15:08:36.380Z,96328.60
2018-10-05T15:11:09.436Z,96322.58
2018-10-05T15:13:41.985Z,96317.39
2018-10-05T15:16:15.825Z,96314.94
2018-10-05T15:18:47.243Z,96314.77
2018-10-05T15:21:20.242Z,96306.13
2018-10-05T15:23:50.985Z,96297.08
2018-10-05T15:26:22.460Z,96300.02
2018-10-05T15:29:02.783Z,96302.41
2018-10-05T15:35:10.966Z,96297.04
2018-10-05T15:37:43.637Z,96293.75
2018-10-05T15:40:15.674Z,96288.41
2018-10-05T15:42:46.793Z,96290.38
2018-10-05T15:45:19.697Z,96288.13
2018-10-05T15:47:57.604Z,96290.14
2018-10-05T15:50:28.692Z,96286.85
2018-10-05T15:53:07.550Z,96283.23
2018-10-05T15:55:39.625Z,96284.30
2018-10-05T15:58:14.162Z,96284.14
2018-10-05T16:00:49.671Z,96278.07
2018-10-05T16:03:21.244Z,96279.33
2018-10-05T16:05:52.558Z,96277.28
2018-10-05T16:08:24.403Z,96270.59
2018-10-05T16:10:54.813Z,96275.22
2018-10-05T16:13:26.136Z,96274.13
2018-10-05T16:15:57.511Z,96271.28
2018-10-05T16:18:31.461Z,96274.41
2018-10-05T16:21:03.620Z,96274.25
2018-10-05T16:23:36.091Z,96272.76
2018-10-05T16:26:06.157Z,96274.80
2018-10-05T16:28:37.353Z,96273.64
2018-10-05T16:31:10.291Z,96281.72
2018-10-05T16:33:41.527Z,96278.68
2018-10-05T16:36:11.684Z,96277.03
2018-10-05T16:38:44.406Z,96272.41
2018-10-05T16:41:15.440Z,96273.41
2018-10-05T16:43:46.040Z,96268.98
2018-10-05T16:46:18.360Z,96265.13
2018-10-05T16:48:48.423Z,96257.94
2018-10-05T16:51:19.540Z,96255.12
2018-10-05T16:53:50.456Z,96257.34
2018-10-05T16:56:21.596Z,96258.14
2018-10-05T17:01:32.280Z,96253.16
2018-10-05T17:04:03.051Z,96253.50
2018-10-05T17:06:33.159Z,96253.25
2018-10-05T17:09:08.056Z,96256.56
2018-10-05T17:11:43.466Z,96252.32
2018-10-05T17:14:13.914Z,96252.66
2018-10-05T17:16:44.631Z,96253.23
2018-10-05T17:19:16.377Z,96255.16
2018-10-05T17:21:47.122Z,96260.27
2018-10-05T17:24:18.686Z,96257.91
2018-10-05T17:26:48.787Z,96250.38
2018-10-05T17:29:19.269Z,96251.48
2018-10-05T17:31:49.420Z,96243.70
2018-10-05T17:34:21.424Z,96243.97
2018-10-05T17:36:51.837Z,96245.02
2018-10-05T17:39:28.333Z,96246.09
2018-10-05T17:42:00.824Z,96240.91
2018-10-05T17:44:31.740Z,96233.83
2018-10-05T17:47:04.695Z,96234.63
2018-10-05T17:49:36.638Z,96237.27
2018-10-05T17:52:15.193Z,96232.38
2018-10-05T17:54:47.413Z,96229.14
2018-10-05T17:59:56.060Z,96228.17
2018-10-05T18:02:26.779Z,96221.43
2018-10-05T18:04:58.685Z,96224.92
2018-10-05T18:07:33.675Z,96221.48
2018-10-05T18:10:04.695Z,96221.22
2018-10-05T18:12:37.021Z,96222.58
2018-10-05T18:15:08.239Z,96222.38
2018-10-05T18:17:42.476Z,96222.30
2018-10-05T18:20:14.729Z,96218.81
2018-10-05T18:22:50.409Z,96219.13
2018-10-05T18:25:21.306Z,96220.77
2018-10-05T18:27:51.705Z,96210.21
2018-10-05T18:30:23.742Z,96206.64
2018-10-05T18:32:57.374Z,96203.41
2018-10-05T18:35:29.835Z,96200.17
2018-10-05T18:38:02.469Z,96197.20
2018-10-05T18:40:36.533Z,96194.78
2018-10-05T18:43:09.342Z,96196.67
2018-10-05T18:45:42.453Z,96204.19
2018-10-05T18:48:16.506Z,96194.46
2018-10-05T18:50:51.583Z,96193.44
2018-10-05T18:53:27.126Z,96192.89
2018-10-05T18:56:23.317Z,96188.28
2018-10-05T18:58:58.052Z,96192.38
2018-10-05T19:01:33.463Z,96187.00
2018-10-05T19:04:05.766Z,96188.39
2018-10-05T19:06:41.266Z,96180.06
2018-10-05T19:09:15.137Z,96178.39
2018-10-05T19:14:42.514Z,96177.28
2018-10-05T19:17:17.423Z,96176.16
2018-10-05T19:19:49.555Z,96169.41
2018-10-05T19:22:24.747Z,96169.43
2018-10-05T19:25:01.345Z,96169.70
2018-10-05T19:27:35.906Z,96176.77
2018-10-05T19:30:11.730Z,96164.66
2018-10-05T19:32:45.027Z,96163.59
2018-10-05T19:35:16.863Z,96154.44
2018-10-05T19:37:49.208Z,96163.38
2018-10-05T19:40:19.256Z,96154.98
2018-10-05T19:42:50.553Z,96155.05
2018-10-05T19:45:21.475Z,96158.06
2018-10-05T19:47:54.572Z,96151.03
2018-10-05T19:50:25.543Z,96149.47
2018-10-05T19:53:00.343Z,96147.31
2018-10-05T19:55:38.278Z,96157.22
2018-10-05T19:58:10.145Z,96151.83
2018-10-05T20:00:47.426Z,96149.69
2018-10-05T20:03:20.429Z,96149.94
2018-10-05T20:05:54.043Z,96144.87
2018-10-05T20:08:28.283Z,96143.03
2018-10-05T20:11:01.292Z,96142.30
2018-10-05T20:13:36.345Z,96136.65
2018-10-05T20:16:10.640Z,96134.74
2018-10-05T20:19:01.393Z,96142.81
2018-10-05T20:21:39.717Z,96132.06
2018-10-05T20:24:13.771Z,96131.85
2018-10-05T20:26:47.655Z,96126.78
2018-10-05T20:29:19.104Z,96123.08
2018-10-05T20:31:54.519Z,96120.92
2018-10-05T20:37:10.402Z,96113.18
2018-10-05T20:39:41.119Z,96118.03
2018-10-05T20:42:17.880Z,96116.95
2018-10-05T20:44:48.394Z,96121.98
2018-10-05T20:47:18.679Z,96119.31
2018-10-05T20:49:49.293Z,96115.59
2018-10-05T20:52:20.274Z,96116.90
2018-10-05T20:54:53.645Z,96115.75
2018-10-05T20:57:23.659Z,96114.19
2018-10-05T20:59:54.235Z,96112.37
2018-10-05T21:02:23.966Z,96113.44
2018-10-05T21:04:54.015Z,96113.40
2018-10-05T21:07:27.328Z,96118.02
2018-10-05T21:09:57.266Z,96117.81
2018-10-05T21:12:27.813Z,96108.89
2018-10-05T21:14:59.144Z,96104.33
2018-10-05T21:17:28.815Z,96101.41
2018-10-05T21:20:01.337Z,96106.00
2018-10-05T21:22:32.639Z,96101.14
2018-10-05T21:25:03.688Z,96098.47
2018-10-05T21:27:33.391Z,96092.29
2018-10-05T21:30:04.466Z,96098.47
2018-10-05T21:32:34.604Z,96093.41
2018-10-05T21:35:06.564Z,96092.33
2018-10-05T21:37:36.229Z,96088.09
2018-10-05T21:40:05.879Z,96091.04
2018-10-05T21:42:35.538Z,96087.01
2018-10-05T21:45:06.243Z,96088.02
2018-10-05T21:47:37.025Z,96084.59
2018-10-05T21:50:07.065Z,96078.15
2018-10-05T21:52:36.769Z,96084.91
2018-10-05T21:55:08.299Z,96073.84
2018-10-05T21:57:38.670Z,96075.41
2018-10-05T22:00:10.468Z,96075.39
2018-10-05T22:02:41.356Z,96076.25
2018-10-05T22:05:11.056Z,96075.72
2018-10-05T22:07:41.518Z,96067.33
2018-10-05T22:10:12.136Z,96063.91
2018-10-05T22:12:42.398Z,96069.61
2018-10-05T22:15:12.537Z,96065.91
2018-10-05T22:17:43.607Z,96063.54
2018-10-05T22:20:13.293Z,96056.86
2018-10-05T22:22:44.690Z,96057.13
2018-10-05T22:25:14.469Z,96052.53
2018-10-05T22:27:44.901Z,96053.87
2018-10-05T22:30:17.363Z,96051.67
2018-10-05T22:32:50.293Z,96051.44
2018-10-05T22:35:21.134Z,96043.17
2018-10-05T22:37:52.891Z,96045.01
2018-10-05T22:40:26.905Z,96046.09
2018-10-05T22:42:57.657Z,96039.95
2018-10-05T22:45:30.285Z,96040.45
2018-10-05T22:48:06.684Z,96039.84
2018-10-05T22:50:37.061Z,96042.80
2018-10-05T22:53:06.726Z,96037.95
2018-10-05T22:55:36.434Z,96032.88
2018-10-05T22:58:06.428Z,96033.99
2018-10-05T23:00:36.035Z,96040.22
2018-10-05T23:03:05.672Z,96035.61
2018-10-05T23:05:35.650Z,96030.82
2018-10-05T23:08:06.501Z,96030.55
2018-10-05T23:10:36.901Z,96028.41
2018-10-05T23:13:09.513Z,96037.53
2018-10-05T23:15:39.469Z,96043.66
2018-10-05T23:18:09.846Z,96036.67
2018-10-05T23:20:40.445Z,96033.44
2018-10-05T23:23:10.840Z,96039.04
2018-10-05T23:25:40.495Z,96035.81
2018-10-05T23:28:11.632Z,96033.72
2018-10-05T23:30:41.218Z,96030.28
2018-10-05T23:33:11.157Z,96034.59
2018-10-05T23:35:40.771Z,96030.29
2018-10-05T23:38:10.448Z,96026.54
2018-10-05T23:40:40.074Z,96034.36
2018-10-05T23:43:09.706Z,96031.98
2018-10-05T23:45:40.176Z,96031.19
2018-10-05T23:48:11.689Z,96036.59
2018-10-05T23:50:41.326Z,96033.61
2018-10-05T23:53:11.800Z,96029.36
2018-10-05T23:55:43.699Z,96029.39
2018-10-05T23:58:13.409Z,96021.08
